createdAt,value
2022-12-29T00:02:20.815Z,95.94
2022-12-29T00:04:47.444Z,96.11
2022-12-29T00:07:14.070Z,96.32
2022-12-29T00:09:40.772Z,96.71
2022-12-29T00:12:07.566Z,96.94
2022-12-29T00:14:52.752Z,96.50
2022-12-29T00:17:21.148Z,95.97
2022-12-29T00:20:06.788Z,96.65
2022-12-29T00:22:52.338Z,96.07
2022-12-29T00:25:37.670Z,95.90
2022-12-29T00:28:23.090Z,96.10
2022-12-29T00:31:09.503Z,96.44
2022-12-29T00:33:54.829Z,96.41
2022-12-29T00:36:28.745Z,96.55
2022-12-29T00:39:32.019Z,96.01
2022-12-29T00:42:40.839Z,94.70
2022-12-29T00:45:07.671Z,94.58
2022-12-29T00:47:34.336Z,94.82
2022-12-29T00:50:00.956Z,94.08
2022-12-29T00:52:27.625Z,93.78
2022-12-29T00:54:54.314Z,94.59
2022-12-29T00:57:20.978Z,95.74
2022-12-29T00:59:47.543Z,95.87
2022-12-29T01:02:14.266Z,97.07
2022-12-29T01:04:41.067Z,96.22
2022-12-29T01:07:07.780Z,96.49
2022-12-29T01:09:52.937Z,96.64
2022-12-29T01:12:39.857Z,96.16
2022-12-29T01:15:07.689Z,95.69
2022-12-29T01:17:34.531Z,96.04
2022-12-29T01:20:01.772Z,95.78
2022-12-29T01:22:28.525Z,95.02
2022-12-29T01:24:55.481Z,95.57
2022-12-29T01:27:22.108Z,96.74
2022-12-29T01:29:49.034Z,96.44
2022-12-29T01:32:15.985Z,97.53
2022-12-29T01:34:44.892Z,96.78
2022-12-29T01:37:11.915Z,97.08
2022-12-29T01:39:38.578Z,96.43
2022-12-29T01:42:05.295Z,96.10
2022-12-29T01:44:53.275Z,95.44
2022-12-29T01:47:34.817Z,96.47
2022-12-29T01:50:13.488Z,96.70
2022-12-29T01:52:48.724Z,97.84
2022-12-29T01:55:15.947Z,97.63
2022-12-29T01:57:49.481Z,97.58
2022-12-29T02:00:17.959Z,97.73
2022-12-29T02:02:52.724Z,98.14
2022-12-29T02:05:34.926Z,98.01
2022-12-29T02:08:02.787Z,98.24
2022-12-29T02:10:32.571Z,98.40
2022-12-29T02:12:59.493Z,98.12
2022-12-29T02:16:06.076Z,98.66
2022-12-29T02:19:00.720Z,97.86
2022-12-29T02:21:53.653Z,97.25
2022-12-29T02:24:35.433Z,97.56
2022-12-29T02:27:20.807Z,98.91
2022-12-29T02:30:04.447Z,99.11
2022-12-29T02:33:05.662Z,97.76
2022-12-29T02:35:38.161Z,97.28
2022-12-29T02:38:19.928Z,97.01
2022-12-29T02:41:04.119Z,97.54
2022-12-29T02:43:48.883Z,97.58
2022-12-29T02:46:37.425Z,96.78
2022-12-29T02:49:11.292Z,96.82
2022-12-29T02:51:50.222Z,97.25
2022-12-29T02:54:38.463Z,97.70
2022-12-29T02:57:15.456Z,98.20
2022-12-29T02:59:45.021Z,99.36
2022-12-29T03:02:36.592Z,99.71
2022-12-29T03:05:12.560Z,100.00
2022-12-29T03:07:42.392Z,100.00
2022-12-29T03:10:17.509Z,100.00
2022-12-29T03:13:06.311Z,100.00
2022-12-29T03:16:04.389Z,100.00
2022-12-29T03:18:59.070Z,100.00
2022-12-29T03:22:03.399Z,100.00
2022-12-29T03:24:33.930Z,100.00
2022-12-29T03:27:03.784Z,100.00
2022-12-29T03:29:34.193Z,100.00
2022-12-29T03:32:04.326Z,100.00
2022-12-29T03:34:32.380Z,100.00
2022-12-29T03:37:01.850Z,100.00
2022-12-29T03:39:28.713Z,100.00
2022-12-29T03:42:07.842Z,100.00
2022-12-29T03:44:37.798Z,100.00
2022-12-29T03:47:05.064Z,100.00
2022-12-29T03:49:31.745Z,100.00
2022-12-29T03:51:58.572Z,100.00
2022-12-29T03:54:25.635Z,100.00
2022-12-29T03:56:52.323Z,100.00
2022-12-29T03:59:18.977Z,100.00
2022-12-29T04:01:45.772Z,100.00
2022-12-29T04:04:12.501Z,100.00
2022-12-29T04:06:39.120Z,100.00
2022-12-29T04:09:06.173Z,100.00
2022-12-29T04:11:34.600Z,100.00
2022-12-29T04:14:01.674Z,100.00
2022-12-29T04:16:28.381Z,100.00
2022-12-29T04:18:55.165Z,100.00
2022-12-29T04:21:21.845Z,100.00
2022-12-29T04:23:48.618Z,100.00
2022-12-29T04:26:15.311Z,100.00
2022-12-29T04:28:41.914Z,100.00
2022-12-29T04:31:08.787Z,100.00
2022-12-29T04:33:35.671Z,100.00
2022-12-29T04:36:02.345Z,100.00
2022-12-29T04:38:29.155Z,100.00
2022-12-29T04:40:56.072Z,100.00
2022-12-29T04:43:25.457Z,100.00
2022-12-29T04:45:52.182Z,100.00
2022-12-29T04:48:18.850Z,100.00
2022-12-29T04:50:45.556Z,100.00
2022-12-29T04:53:12.222Z,100.00
2022-12-29T04:55:39.383Z,100.00
2022-12-29T04:58:06.354Z,100.00
2022-12-29T05:00:33.064Z,100.00
2022-12-29T05:03:00.468Z,100.00
2022-12-29T05:05:27.280Z,100.00
2022-12-29T05:07:53.955Z,100.00
2022-12-29T05:10:20.649Z,100.00
2022-12-29T05:12:47.296Z,100.00
2022-12-29T05:15:14.079Z,100.00
2022-12-29T05:18:18.715Z,100.00
2022-12-29T05:20:46.741Z,100.00
2022-12-29T05:23:13.308Z,100.00
2022-12-29T05:25:40.018Z,100.00
2022-12-29T05:28:06.859Z,100.00
2022-12-29T05:30:34.246Z,100.00
2022-12-29T05:33:01.010Z,100.00
2022-12-29T05:35:27.778Z,100.00
2022-12-29T05:37:54.421Z,100.00
2022-12-29T05:40:21.143Z,100.00
2022-12-29T05:42:47.747Z,100.00
2022-12-29T05:45:14.532Z,100.00
2022-12-29T05:47:41.262Z,100.00
2022-12-29T05:50:08.360Z,100.00
2022-12-29T05:52:45.715Z,100.00
2022-12-29T05:55:12.964Z,100.00
2022-12-29T05:57:39.711Z,100.00
2022-12-29T06:00:07.694Z,100.00
2022-12-29T06:02:34.331Z,100.00
2022-12-29T06:05:01.098Z,100.00
2022-12-29T06:07:28.040Z,100.00
2022-12-29T06:09:54.717Z,100.00
2022-12-29T06:12:21.330Z,100.00
2022-12-29T06:14:48.124Z,100.00
2022-12-29T06:17:14.726Z,100.00
2022-12-29T06:19:41.428Z,100.00
2022-12-29T06:22:08.764Z,100.00
2022-12-29T06:24:35.461Z,100.00
2022-12-29T06:27:02.171Z,100.00
2022-12-29T06:29:29.163Z,100.00
2022-12-29T06:31:58.987Z,100.00
2022-12-29T06:34:26.065Z,100.00
2022-12-29T06:36:53.063Z,100.00
2022-12-29T06:39:19.882Z,100.00
2022-12-29T06:41:46.553Z,100.00
2022-12-29T06:44:13.215Z,100.00
2022-12-29T06:46:39.865Z,100.00
2022-12-29T06:49:06.490Z,100.00
2022-12-29T06:51:33.828Z,100.00
2022-12-29T06:54:00.465Z,100.00
2022-12-29T06:56:27.118Z,100.00
2022-12-29T06:58:54.008Z,100.00
2022-12-29T07:01:20.623Z,100.00
2022-12-29T07:03:47.525Z,100.00
2022-12-29T07:06:14.201Z,100.00
2022-12-29T07:08:40.831Z,100.00
2022-12-29T07:11:07.512Z,100.00
2022-12-29T07:13:34.207Z,100.00
2022-12-29T07:16:00.939Z,100.00
2022-12-29T07:18:27.578Z,100.00
2022-12-29T07:20:54.296Z,100.00
2022-12-29T07:23:20.940Z,100.00
2022-12-29T07:25:48.052Z,99.95
2022-12-29T07:28:14.707Z,99.38
2022-12-29T07:30:41.659Z,99.57
2022-12-29T07:33:08.273Z,98.99
2022-12-29T07:35:35.904Z,99.03
2022-12-29T07:38:02.498Z,99.38
2022-12-29T07:40:29.116Z,99.13
2022-12-29T07:42:55.731Z,99.35
2022-12-29T07:45:22.489Z,99.73
2022-12-29T07:47:50.487Z,99.64
2022-12-29T07:50:17.160Z,98.77
2022-12-29T07:52:44.043Z,97.59
2022-12-29T07:55:10.660Z,98.29
2022-12-29T07:57:37.295Z,97.89
2022-12-29T08:00:05.009Z,97.38
2022-12-29T08:02:31.924Z,97.42
2022-12-29T08:04:58.699Z,97.25
2022-12-29T08:07:25.404Z,96.95
2022-12-29T08:09:52.052Z,97.91
2022-12-29T08:12:18.836Z,97.17
2022-12-29T08:14:45.545Z,96.94
2022-12-29T08:17:12.272Z,96.32
2022-12-29T08:19:39.476Z,95.63
2022-12-29T08:22:06.149Z,95.43
2022-12-29T08:24:32.821Z,94.86
2022-12-29T08:27:03.376Z,95.27
2022-12-29T08:29:36.024Z,94.55
2022-12-29T08:32:02.591Z,94.01
2022-12-29T08:34:29.326Z,94.38
2022-12-29T08:36:55.948Z,94.12
2022-12-29T08:39:22.679Z,93.59
2022-12-29T08:41:50.308Z,91.65
2022-12-29T08:44:17.165Z,90.70
2022-12-29T08:46:45.516Z,90.06
2022-12-29T08:49:12.374Z,90.23
2022-12-29T08:51:39.127Z,89.87
2022-12-29T08:54:05.939Z,89.23
2022-12-29T08:56:32.838Z,88.11
2022-12-29T08:58:59.508Z,89.41
2022-12-29T09:01:26.407Z,87.84
2022-12-29T09:04:14.370Z,87.32
2022-12-29T09:06:41.618Z,87.23
2022-12-29T09:09:08.615Z,85.66
2022-12-29T09:11:35.327Z,85.75
2022-12-29T09:14:01.951Z,86.23
2022-12-29T09:16:28.832Z,85.56
2022-12-29T09:18:55.489Z,86.11
2022-12-29T09:21:24.813Z,84.29
2022-12-29T09:23:51.476Z,83.85
2022-12-29T09:26:18.059Z,84.05
2022-12-29T09:28:45.433Z,83.03
2022-12-29T09:31:12.972Z,83.22
2022-12-29T09:33:39.832Z,82.66
2022-12-29T09:36:07.069Z,81.47
2022-12-29T09:38:33.702Z,80.33
2022-12-29T09:41:11.838Z,80.62
2022-12-29T09:44:01.187Z,78.47
2022-12-29T09:46:30.475Z,78.27
2022-12-29T09:49:07.503Z,78.20
2022-12-29T09:51:37.420Z,78.12
2022-12-29T09:54:51.492Z,75.98
2022-12-29T09:57:26.305Z,75.67
2022-12-29T09:59:58.331Z,74.84
2022-12-29T10:02:33.594Z,74.11
2022-12-29T10:05:00.905Z,74.09
2022-12-29T10:07:36.884Z,74.24
2022-12-29T10:10:15.523Z,74.30
2022-12-29T10:12:48.186Z,73.73
2022-12-29T10:15:45.525Z,74.15
2022-12-29T10:18:21.122Z,72.58
2022-12-29T10:21:18.385Z,72.20
2022-12-29T10:23:49.577Z,72.20
2022-12-29T10:26:28.980Z,73.00
2022-12-29T10:29:04.570Z,71.15
2022-12-29T10:31:45.335Z,71.36
2022-12-29T10:34:28.530Z,68.61
2022-12-29T10:37:18.183Z,69.72
2022-12-29T10:39:47.922Z,70.11
2022-12-29T10:42:40.307Z,69.41
2022-12-29T10:45:13.716Z,68.63
2022-12-29T10:47:52.923Z,67.76
2022-12-29T10:50:20.512Z,68.24
2022-12-29T10:52:49.161Z,67.43
2022-12-29T10:55:28.358Z,67.70
2022-12-29T10:57:58.334Z,68.07
2022-12-29T11:00:25.505Z,67.53
2022-12-29T11:03:17.293Z,67.96
2022-12-29T11:05:50.428Z,66.99
2022-12-29T11:08:27.364Z,67.25
2022-12-29T11:11:06.597Z,65.86
2022-12-29T11:13:57.759Z,64.54
2022-12-29T11:16:31.732Z,66.47
2022-12-29T11:18:59.168Z,66.43
2022-12-29T11:21:41.047Z,65.39
2022-12-29T11:24:22.257Z,65.76
2022-12-29T11:26:51.716Z,65.09
2022-12-29T11:29:21.776Z,64.98
2022-12-29T11:31:55.336Z,63.98
2022-12-29T11:34:26.365Z,62.45
2022-12-29T11:37:01.164Z,62.36
2022-12-29T11:40:05.805Z,63.26
2022-12-29T11:42:42.943Z,61.58
2022-12-29T11:45:25.437Z,61.31
2022-12-29T11:47:55.996Z,62.75
2022-12-29T11:50:27.441Z,63.63
2022-12-29T11:53:04.700Z,62.72
2022-12-29T11:55:32.135Z,63.49
2022-12-29T11:58:02.734Z,63.18
2022-12-29T12:00:35.576Z,62.56
2022-12-29T12:03:05.940Z,62.91
2022-12-29T12:05:38.728Z,62.62
2022-12-29T12:08:24.035Z,63.59
2022-12-29T12:11:23.459Z,65.89
2022-12-29T12:13:53.928Z,64.45
2022-12-29T12:16:23.402Z,65.03
2022-12-29T12:18:54.907Z,65.42
2022-12-29T12:21:45.413Z,63.27
2022-12-29T12:24:53.430Z,63.80
2022-12-29T12:27:41.486Z,65.16
2022-12-29T12:30:25.544Z,64.65
2022-12-29T12:33:10.952Z,65.61
2022-12-29T12:35:49.171Z,65.49
2022-12-29T12:38:39.187Z,66.33
2022-12-29T12:44:33.101Z,67.87
2022-12-29T12:47:26.572Z,69.11
2022-12-29T12:50:02.509Z,69.06
2022-12-29T12:52:58.372Z,70.28
2022-12-29T12:55:56.082Z,69.30
2022-12-29T12:58:41.162Z,70.58
2022-12-29T13:01:23.094Z,70.69
2022-12-29T13:04:06.759Z,70.19
2022-12-29T13:07:06.338Z,70.88
2022-12-29T13:09:32.882Z,71.05
2022-12-29T13:12:22.858Z,71.10
2022-12-29T13:14:55.406Z,71.23
2022-12-29T13:17:23.240Z,72.01
2022-12-29T13:20:11.279Z,71.65
2022-12-29T13:23:00.451Z,72.00
2022-12-29T13:25:32.130Z,72.13
2022-12-29T13:28:01.977Z,71.97
2022-12-29T13:30:42.888Z,71.12
2022-12-29T13:33:25.071Z,71.43
2022-12-29T13:35:54.654Z,71.74
2022-12-29T13:38:34.020Z,72.03
2022-12-29T13:41:06.952Z,72.25
2022-12-29T13:43:36.877Z,72.26
2022-12-29T13:46:10.925Z,72.31
2022-12-29T13:48:54.425Z,72.10
2022-12-29T13:51:28.047Z,71.57
2022-12-29T13:54:19.490Z,71.93
2022-12-29T13:57:10.299Z,72.25
2022-12-29T13:59:42.895Z,72.92
2022-12-29T14:02:25.016Z,72.53
2022-12-29T14:04:59.946Z,72.50
2022-12-29T14:07:27.462Z,74.06
2022-12-29T14:09:56.138Z,73.21
2022-12-29T14:12:35.303Z,73.10
2022-12-29T14:15:11.104Z,72.71
2022-12-29T14:17:41.502Z,73.13
2022-12-29T14:20:23.328Z,73.44
2022-12-29T14:23:02.071Z,73.83
2022-12-29T14:25:57.972Z,74.66
2022-12-29T14:28:27.865Z,74.49
2022-12-29T14:31:06.478Z,74.56
2022-12-29T14:33:35.062Z,75.06
2022-12-29T14:36:41.926Z,75.35
2022-12-29T14:39:39.152Z,76.06
2022-12-29T14:42:12.061Z,75.59
2022-12-29T14:45:01.026Z,75.99
2022-12-29T14:47:40.084Z,76.34
2022-12-29T14:50:18.724Z,76.20
2022-12-29T14:52:51.434Z,76.79
2022-12-29T14:55:47.784Z,76.61
2022-12-29T14:58:27.183Z,78.01
2022-12-29T15:00:55.711Z,77.18
2022-12-29T15:03:25.510Z,77.53
2022-12-29T15:05:56.566Z,77.79
2022-12-29T15:08:30.060Z,78.82
2022-12-29T15:11:00.524Z,78.14
2022-12-29T15:13:41.108Z,77.65
2022-12-29T15:16:24.472Z,79.33
2022-12-29T15:18:51.252Z,79.36
2022-12-29T15:21:25.522Z,79.76
2022-12-29T15:23:53.544Z,80.24
2022-12-29T15:26:24.942Z,80.04
2022-12-29T15:28:53.925Z,80.12
2022-12-29T15:31:27.948Z,81.10
2022-12-29T15:34:10.897Z,81.29
2022-12-29T15:36:39.976Z,81.46
2022-12-29T15:39:29.300Z,80.67
2022-12-29T15:42:53.761Z,81.45
2022-12-29T15:45:20.638Z,82.37
2022-12-29T15:47:50.918Z,82.84
2022-12-29T15:50:27.282Z,82.56
2022-12-29T15:52:53.986Z,83.55
2022-12-29T15:55:22.428Z,84.46
2022-12-29T15:57:49.146Z,83.97
2022-12-29T16:00:38.269Z,84.18
2022-12-29T16:03:07.483Z,84.37
2022-12-29T16:05:40.055Z,85.08
2022-12-29T16:08:38.125Z,85.37
2022-12-29T16:11:21.865Z,85.41
2022-12-29T16:13:49.774Z,85.49
2022-12-29T16:16:24.591Z,85.88
2022-12-29T16:18:57.758Z,86.18
2022-12-29T16:21:35.280Z,86.56
2022-12-29T16:24:11.855Z,87.81
2022-12-29T16:26:38.997Z,87.08
2022-12-29T16:29:08.705Z,86.86
2022-12-29T16:32:01.757Z,86.20
2022-12-29T16:34:31.621Z,85.18
2022-12-29T16:37:33.741Z,85.37
2022-12-29T16:40:18.721Z,84.85
2022-12-29T16:42:51.446Z,85.98
2022-12-29T16:45:24.637Z,86.35
2022-12-29T16:48:06.737Z,87.21
2022-12-29T16:50:39.471Z,87.52
2022-12-29T16:53:08.862Z,87.11
2022-12-29T16:55:36.016Z,86.57
2022-12-29T16:58:03.016Z,86.23
2022-12-29T17:00:36.119Z,85.91
2022-12-29T17:03:04.727Z,85.53
2022-12-29T17:05:31.528Z,84.34
2022-12-29T17:08:03.412Z,85.08
2022-12-29T17:10:48.603Z,84.75
2022-12-29T17:13:15.384Z,84.71
2022-12-29T17:15:42.269Z,85.17
2022-12-29T17:18:14.505Z,85.10
2022-12-29T17:20:41.376Z,85.50
2022-12-29T17:23:22.614Z,85.85
2022-12-29T17:25:55.143Z,85.60
2022-12-29T17:28:29.407Z,85.60
2022-12-29T17:31:01.798Z,86.30
2022-12-29T17:33:35.840Z,86.53
2022-12-29T17:36:04.522Z,86.24
2022-12-29T17:38:36.382Z,85.61
2022-12-29T17:41:03.780Z,86.18
2022-12-29T17:43:36.844Z,85.78
2022-12-29T17:46:08.396Z,86.05
2022-12-29T17:48:35.646Z,85.88
2022-12-29T17:51:03.536Z,85.52
2022-12-29T17:53:31.746Z,85.15
2022-12-29T17:55:59.502Z,85.04
2022-12-29T17:58:28.323Z,84.66
2022-12-29T18:00:57.979Z,85.19
2022-12-29T18:03:29.498Z,86.21
2022-12-29T18:05:57.936Z,86.71
2022-12-29T18:11:29.083Z,86.26
2022-12-29T18:13:55.726Z,86.84
2022-12-29T18:16:23.740Z,86.11
2022-12-29T18:18:50.530Z,86.15
2022-12-29T18:21:20.511Z,86.46
2022-12-29T18:23:47.924Z,86.63
2022-12-29T18:26:28.871Z,87.35
2022-12-29T18:28:58.335Z,88.20
2022-12-29T18:31:29.821Z,88.93
2022-12-29T18:33:58.129Z,89.35
2022-12-29T18:36:27.097Z,88.91
2022-12-29T18:38:56.455Z,88.72
2022-12-29T18:41:25.720Z,88.88
2022-12-29T18:43:53.159Z,89.08
2022-12-29T18:46:23.036Z,89.36
2022-12-29T18:48:52.110Z,89.72
2022-12-29T18:51:22.646Z,90.15
2022-12-29T18:53:54.436Z,89.63
2022-12-29T18:56:25.770Z,91.01
2022-12-29T18:58:56.947Z,92.13
2022-12-29T19:01:32.812Z,92.72
2022-12-29T19:04:00.125Z,92.74
2022-12-29T19:06:26.966Z,93.55
2022-12-29T19:08:54.137Z,93.94
2022-12-29T19:11:23.385Z,94.88
2022-12-29T19:13:50.210Z,94.74
2022-12-29T19:16:22.494Z,95.34
2022-12-29T19:19:05.711Z,95.16
2022-12-29T19:21:36.752Z,95.63
2022-12-29T19:24:03.754Z,95.91
2022-12-29T19:26:34.463Z,95.46
2022-12-29T19:29:02.637Z,94.67
2022-12-29T19:31:29.477Z,92.67
2022-12-29T19:33:56.270Z,92.04
2022-12-29T19:36:24.330Z,91.62
2022-12-29T19:38:51.052Z,91.33
2022-12-29T19:41:17.732Z,91.46
2022-12-29T19:43:44.515Z,90.81
2022-12-29T19:46:15.855Z,91.70
2022-12-29T19:48:42.779Z,91.56
2022-12-29T19:51:12.590Z,91.42
2022-12-29T19:53:39.399Z,90.81
2022-12-29T19:56:09.714Z,90.83
2022-12-29T19:58:43.867Z,91.26
2022-12-29T20:01:19.793Z,91.91
2022-12-29T20:03:47.418Z,92.83
2022-12-29T20:06:14.721Z,93.50
2022-12-29T20:08:41.484Z,93.26
2022-12-29T20:11:13.186Z,93.39
2022-12-29T20:13:40.916Z,93.66
2022-12-29T20:16:13.093Z,93.66
2022-12-29T20:18:41.149Z,93.70
2022-12-29T20:21:09.277Z,93.68
2022-12-29T20:23:39.968Z,94.14
2022-12-29T20:26:11.679Z,94.42
2022-12-29T20:28:38.497Z,94.45
2022-12-29T20:31:14.425Z,94.93
2022-12-29T20:33:43.076Z,95.46
2022-12-29T20:36:18.241Z,95.72
2022-12-29T20:38:46.256Z,95.95
2022-12-29T20:41:17.070Z,96.01
2022-12-29T20:43:44.031Z,95.64
2022-12-29T20:46:11.707Z,95.12
2022-12-29T20:48:38.559Z,95.14
2022-12-29T20:51:05.942Z,94.74
2022-12-29T20:53:34.399Z,94.40
2022-12-29T20:56:09.694Z,94.53
2022-12-29T20:58:52.459Z,93.57
2022-12-29T21:01:26.023Z,93.17
2022-12-29T21:03:53.205Z,92.36
2022-12-29T21:06:21.606Z,92.91
2022-12-29T21:08:56.215Z,93.93
2022-12-29T21:11:23.816Z,94.40
2022-12-29T21:13:51.079Z,94.61
2022-12-29T21:16:21.279Z,95.49
2022-12-29T21:18:49.048Z,96.01
2022-12-29T21:21:21.290Z,96.34
2022-12-29T21:23:49.597Z,97.18
2022-12-29T21:26:19.694Z,96.40
2022-12-29T21:28:48.786Z,95.97
2022-12-29T21:31:28.591Z,95.09
2022-12-29T21:33:56.886Z,95.69
2022-12-29T21:36:24.262Z,96.12
2022-12-29T21:38:53.235Z,96.92
2022-12-29T21:41:22.977Z,96.84
2022-12-29T21:44:12.874Z,97.84
2022-12-29T21:46:42.133Z,97.98
2022-12-29T21:49:12.573Z,98.18
2022-12-29T21:51:51.227Z,97.80
2022-12-29T21:54:40.903Z,97.61
2022-12-29T21:57:08.871Z,97.96
2022-12-29T21:59:54.573Z,97.80
2022-12-29T22:02:45.457Z,98.14
2022-12-29T22:05:33.436Z,98.27
2022-12-29T22:08:20.459Z,98.01
2022-12-29T22:11:06.933Z,98.00
2022-12-29T22:13:36.278Z,97.27
2022-12-29T22:16:07.756Z,96.75
2022-12-29T22:18:35.222Z,96.81
2022-12-29T22:21:10.112Z,96.66
2022-12-29T22:23:37.902Z,97.76
2022-12-29T22:26:08.459Z,96.72
2022-12-29T22:28:38.054Z,95.78
2022-12-29T22:31:06.621Z,95.67
2022-12-29T22:33:33.827Z,96.07
2022-12-29T22:36:00.539Z,96.39
2022-12-29T22:38:27.304Z,96.26
2022-12-29T22:40:59.492Z,96.82
2022-12-29T22:43:26.582Z,96.78
2022-12-29T22:45:53.223Z,96.14
2022-12-29T22:48:19.912Z,96.18
2022-12-29T22:50:46.609Z,96.80
2022-12-29T22:53:14.417Z,96.58
2022-12-29T22:55:41.136Z,96.38
2022-12-29T22:58:07.931Z,96.32
2022-12-29T23:00:34.705Z,96.32
2022-12-29T23:03:01.549Z,96.31
2022-12-29T23:05:28.501Z,95.57
2022-12-29T23:07:55.129Z,94.91
2022-12-29T23:10:21.890Z,95.04
2022-12-29T23:12:48.682Z,95.21
2022-12-29T23:15:15.387Z,94.45
2022-12-29T23:17:42.091Z,94.13
2022-12-29T23:20:09.318Z,94.91
2022-12-29T23:22:36.003Z,95.30
2022-12-29T23:25:02.823Z,94.19
2022-12-29T23:27:30.676Z,93.04
2022-12-29T23:29:57.363Z,93.07
2022-12-29T23:32:24.066Z,93.77
2022-12-29T23:34:50.785Z,93.64
2022-12-29T23:37:17.491Z,93.58
2022-12-29T23:39:44.130Z,94.10
2022-12-29T23:42:12.511Z,94.25
2022-12-29T23:44:39.252Z,93.68
2022-12-29T23:47:05.978Z,93.08
2022-12-29T23:49:32.665Z,93.52
2022-12-29T23:51:59.386Z,94.12
2022-12-29T23:54:26.028Z,94.60
2022-12-29T23:56:53.002Z,95.29
2022-12-29T23:59:19.723Z,96.03
